Time;durP1;ratioP1;P1;durP2;ratioP2;P2;SDS_P1;SDS_P2;PMS_P1;PMS_P2;Temp;Humidity;BMP_temperature;BMP_pressure;BME280_temperature;BME280_humidity;BME280_pressure;Samples;Min_cycle;Max_cycle;Signal;HPM_P1;HPM_P2
2022/01/06 00:01:26;;;;;;;14.55;11.95;;;;;;;;;;4992187;28;20084;-70
2022/01/06 00:03:54;;;;;;;12.85;11.50;;;;;;;;;;4998517;28;20073;-70
2022/01/06 00:06:21;;;;;;;13.13;11.93;;;;;;;;;;4990151;28;20486;-69
2022/01/06 00:08:47;;;;;;;13.50;12.10;;;;;;;;;;4994919;28;20128;-70
2022/01/06 00:11:13;;;;;;;12.95;11.85;;;;;;;;;;4993586;28;20106;-70
2022/01/06 00:13:58;;;;;;;13.63;12.23;;;;;;;;;;4997120;28;20033;-70
2022/01/06 00:24:23;;;;;;;14.20;12.00;;;;;;;;;;4983252;28;20450;-70
2022/01/06 00:26:48;;;;;;;16.77;12.27;;;;;;;;;;5014219;28;20037;-70
2022/01/06 00:29:15;;;;;;;15.90;12.45;;;;;;;;;;5002087;28;20034;-70
2022/01/06 00:31:41;;;;;;;14.25;12.57;;;;;;;;;;5012763;28;20034;-70
2022/01/06 00:34:10;;;;;;;18.17;12.90;;;;;;;;;;4999202;28;20044;-69
2022/01/06 00:36:40;;;;;;;14.75;11.93;;;;;;;;;;4998816;28;20042;-70
2022/01/06 00:39:07;;;;;;;13.75;12.45;;;;;;;;;;4998746;28;20030;-70
2022/01/06 00:41:35;;;;;;;13.57;12.38;;;;;;;;;;5002401;28;20401;-70
2022/01/06 00:44:02;;;;;;;13.85;12.48;;;;;;;;;;5001736;28;20042;-70
2022/01/06 00:46:27;;;;;;;15.65;12.95;;;;;;;;;;4998634;28;20040;-70
2022/01/06 00:48:53;;;;;;;13.55;12.18;;;;;;;;;;5002445;28;20548;-70
2022/01/06 00:51:18;;;;;;;13.52;12.30;;;;;;;;;;5000577;28;20097;-69
2022/01/06 00:53:44;;;;;;;16.83;12.88;;;;;;;;;;4999949;28;20034;-70
2022/01/06 00:56:10;;;;;;;14.52;12.45;;;;;;;;;;4996721;28;20029;-69
2022/01/06 00:58:35;;;;;;;14.50;12.48;;;;;;;;;;4991243;28;20112;-69
2022/01/06 01:01:01;;;;;;;18.77;13.20;;;;;;;;;;4988957;28;20038;-70
2022/01/06 01:03:27;;;;;;;16.98;13.20;;;;;;;;;;4989068;28;20042;-70
2022/01/06 01:05:55;;;;;;;13.65;12.45;;;;;;;;;;4995239;28;20037;-69
2022/01/06 01:08:22;;;;;;;21.50;13.50;;;;;;;;;;5004895;28;20040;-69
2022/01/06 01:10:50;;;;;;;15.90;13.73;;;;;;;;;;5007919;28;20046;-69
2022/01/06 01:13:18;;;;;;;16.83;13.52;;;;;;;;;;5008421;28;20141;-70
2022/01/06 01:15:54;;;;;;;18.75;13.45;;;;;;;;;;5001332;28;20084;-70
2022/01/06 01:18:21;;;;;;;18.08;13.85;;;;;;;;;;4993365;28;20046;-69
2022/01/06 01:20:52;;;;;;;16.75;13.13;;;;;;;;;;4987741;28;20061;-69
2022/01/06 01:23:20;;;;;;;16.08;12.68;;;;;;;;;;4997042;28;20033;-70
2022/01/06 01:25:46;;;;;;;19.17;13.55;;;;;;;;;;5003758;28;20049;-69
2022/01/06 01:28:12;;;;;;;19.80;13.63;;;;;;;;;;5008892;28;20049;-69
2022/01/06 01:30:51;;;;;;;23.08;13.23;;;;;;;;;;4987931;28;20052;-69
2022/01/06 01:33:17;;;;;;;;;;;;;;;;;;4997978;28;20030;-69
2022/01/06 01:35:42;;;;;;;14.27;12.32;;;;;;;;;;4988817;28;19914;-69
2022/01/06 01:38:08;;;;;;;13.90;12.65;;;;;;;;;;4991246;28;20266;-69
2022/01/06 01:40:34;;;;;;;19.27;12.82;;;;;;;;;;4998723;28;20087;-69
2022/01/06 01:42:59;;;;;;;13.88;12.70;;;;;;;;;;4988572;28;20042;-69
2022/01/06 01:45:30;;;;;;;13.43;12.27;;;;;;;;;;4988708;28;20069;-69
2022/01/06 01:47:58;;;;;;;19.42;12.82;;;;;;;;;;4988944;28;20077;-69
2022/01/06 01:50:24;;;;;;;15.07;13.25;;;;;;;;;;4998347;28;20041;-69
2022/01/06 01:52:54;;;;;;;16.88;12.95;;;;;;;;;;5008642;28;20029;-69
2022/01/06 01:55:22;;;;;;;13.73;12.40;;;;;;;;;;5008118;28;20030;-69
2022/01/06 01:57:49;;;;;;;16.67;13.43;;;;;;;;;;4983020;28;20049;-69
2022/01/06 02:00:17;;;;;;;14.48;12.82;;;;;;;;;;4998914;28;20497;-69
2022/01/06 02:02:43;;;;;;;13.77;12.15;;;;;;;;;;5007839;28;20084;-69
2022/01/06 02:05:10;;;;;;;17.77;12.80;;;;;;;;;;5007630;28;20464;-69
2022/01/06 02:07:38;;;;;;;15.85;12.68;;;;;;;;;;5001958;28;20026;-69
2022/01/06 02:10:05;;;;;;;13.45;12.05;;;;;;;;;;5001802;28;20065;-69
2022/01/06 02:12:33;;;;;;;12.90;11.63;;;;;;;;;;5007635;28;20073;-69
2022/01/06 02:14:59;;;;;;;14.07;12.70;;;;;;;;;;5007821;28;20293;-69
2022/01/06 02:17:25;;;;;;;13.73;12.30;;;;;;;;;;5003060;28;20126;-69
2022/01/06 02:19:56;;;;;;;16.38;13.05;;;;;;;;;;4995387;28;20070;-69
2022/01/06 02:22:22;;;;;;;13.77;12.40;;;;;;;;;;4990774;28;20084;-69
2022/01/06 02:24:49;;;;;;;17.02;12.48;;;;;;;;;;4999743;28;20030;-69
2022/01/06 02:27:15;;;;;;;15.02;12.52;;;;;;;;;;5005337;28;20057;-69
2022/01/06 02:29:42;;;;;;;16.67;12.48;;;;;;;;;;5011282;28;20088;-69
2022/01/06 02:32:11;;;;;;;13.65;12.40;;;;;;;;;;5010860;28;20042;-69
2022/01/06 02:34:36;;;;;;;15.20;12.70;;;;;;;;;;5004934;28;20037;-70
2022/01/06 02:37:03;;;;;;;14.65;13.25;;;;;;;;;;4996062;28;20051;-69
2022/01/06 02:39:29;;;;;;;13.77;12.57;;;;;;;;;;4991586;28;20518;-69
2022/01/06 02:41:55;;;;;;;14.95;12.90;;;;;;;;;;4994343;28;20112;-69
2022/01/06 02:44:25;;;;;;;15.48;13.90;;;;;;;;;;5002421;28;20517;-69
2022/01/06 02:46:52;;;;;;;22.33;13.32;;;;;;;;;;5011012;28;20112;-69
2022/01/06 02:49:18;;;;;;;16.17;13.15;;;;;;;;;;5010969;28;20068;-69
2022/01/06 02:51:43;;;;;;;14.20;12.68;;;;;;;;;;5007067;28;20493;-69
2022/01/06 02:54:09;;;;;;;13.85;12.40;;;;;;;;;;5000783;28;20108;-69
2022/01/06 02:56:35;;;;;;;14.18;12.77;;;;;;;;;;5009493;28;20504;-69
2022/01/06 02:59:00;;;;;;;13.13;11.85;;;;;;;;;;5010795;28;20065;-69
2022/01/06 03:01:26;;;;;;;13.82;12.43;;;;;;;;;;5009204;28;20062;-69
2022/01/06 03:03:51;;;;;;;13.38;12.05;;;;;;;;;;5003349;28;20042;-69
2022/01/06 03:06:17;;;;;;;16.73;12.88;;;;;;;;;;5009273;28;20052;-69
2022/01/06 03:08:43;;;;;;;12.98;12.07;;;;;;;;;;5009412;28;20559;-69
2022/01/06 03:11:08;;;;;;;13.48;12.40;;;;;;;;;;5001610;28;20046;-70
2022/01/06 03:13:34;;;;;;;12.52;11.52;;;;;;;;;;5006736;28;20548;-69
2022/01/06 03:16:01;;;;;;;13.02;11.65;;;;;;;;;;5010486;28;20041;-69
2022/01/06 03:18:27;;;;;;;12.55;11.55;;;;;;;;;;4994386;28;20371;-70
2022/01/06 03:20:53;;;;;;;13.30;12.05;;;;;;;;;;4999030;28;20108;-70
2022/01/06 03:23:19;;;;;;;12.95;11.95;;;;;;;;;;5002815;28;20144;-69
2022/01/06 03:25:44;;;;;;;14.00;12.18;;;;;;;;;;5009754;28;20454;-70
2022/01/06 03:28:10;;;;;;;12.85;11.85;;;;;;;;;;5008760;28;20512;-69
2022/01/06 03:30:36;;;;;;;14.23;12.27;;;;;;;;;;5000336;28;20120;-69
2022/01/06 03:33:01;;;;;;;12.85;11.82;;;;;;;;;;4990753;28;20489;-69
2022/01/06 03:35:27;;;;;;;13.05;11.75;;;;;;;;;;4990499;28;20121;-69
2022/01/06 03:37:54;;;;;;;13.10;11.80;;;;;;;;;;4997533;28;20034;-69
2022/01/06 03:40:20;;;;;;;13.05;11.70;;;;;;;;;;5003370;28;20116;-69
2022/01/06 03:42:46;;;;;;;12.05;11.13;;;;;;;;;;5009767;28;20041;-69
2022/01/06 03:45:15;;;;;;;13.30;11.90;;;;;;;;;;5025108;28;20034;-70
2022/01/06 03:47:41;;;;;;;12.75;11.65;;;;;;;;;;5003367;28;20079;-70
2022/01/06 03:50:08;;;;;;;14.27;12.00;;;;;;;;;;4993902;28;20065;-69
2022/01/06 03:52:34;;;;;;;13.07;11.23;;;;;;;;;;4989481;28;20090;-69
2022/01/06 03:55:00;;;;;;;17.38;11.80;;;;;;;;;;4992240;28;20500;-70
2022/01/06 03:57:26;;;;;;;12.60;11.35;;;;;;;;;;5006176;28;20042;-70
2022/01/06 03:59:51;;;;;;;13.00;11.50;;;;;;;;;;5009406;28;20045;-69
2022/01/06 04:02:17;;;;;;;13.02;11.68;;;;;;;;;;5008620;28;20046;-70
2022/01/06 04:04:43;;;;;;;12.65;11.57;;;;;;;;;;5002928;28;20041;-70
2022/01/06 04:07:08;;;;;;;12.98;11.35;;;;;;;;;;4998514;28;20532;-69
2022/01/06 04:09:34;;;;;;;13.05;11.50;;;;;;;;;;4988766;28;20046;-70
2022/01/06 04:12:00;;;;;;;12.55;11.32;;;;;;;;;;4989053;28;20123;-69
2022/01/06 04:14:25;;;;;;;13.45;12.10;;;;;;;;;;5000139;28;20056;-70
2022/01/06 04:16:58;;;;;;;13.38;11.52;;;;;;;;;;5020422;28;20405;-70
2022/01/06 04:19:23;;;;;;;13.38;12.00;;;;;;;;;;5009326;28;20036;-70
2022/01/06 04:21:49;;;;;;;12.70;11.70;;;;;;;;;;5004494;28;20121;-70
2022/01/06 04:24:14;;;;;;;12.85;11.70;;;;;;;;;;5004174;28;20034;-70
2022/01/06 04:26:41;;;;;;;13.65;11.63;;;;;;;;;;5009397;28;20091;-70
2022/01/06 04:29:06;;;;;;;12.43;11.13;;;;;;;;;;5009565;28;20042;-70
2022/01/06 04:31:32;;;;;;;12.80;11.60;;;;;;;;;;5006370;28;20049;-70
2022/01/06 04:33:57;;;;;;;13.15;11.85;;;;;;;;;;5005051;28;20268;-70
2022/01/06 04:36:23;;;;;;;13.20;12.00;;;;;;;;;;5009203;28;20041;-70
2022/01/06 04:38:49;;;;;;;13.13;12.00;;;;;;;;;;5009189;28;20042;-70
2022/01/06 04:41:14;;;;;;;13.82;12.07;;;;;;;;;;5002257;28;20444;-70
2022/01/06 04:43:40;;;;;;;13.13;12.07;;;;;;;;;;5000412;28;20041;-69
2022/01/06 04:46:05;;;;;;;14.20;11.95;;;;;;;;;;5008849;28;20096;-70
2022/01/06 04:48:32;;;;;;;12.95;12.05;;;;;;;;;;5014648;28;20091;-69
2022/01/06 04:50:58;;;;;;;13.68;12.32;;;;;;;;;;5000030;28;20042;-70
2022/01/06 04:53:24;;;;;;;12.93;11.80;;;;;;;;;;5004597;28;20382;-70
2022/01/06 04:55:51;;;;;;;13.02;11.75;;;;;;;;;;5007861;28;20046;-70
2022/01/06 04:58:17;;;;;;;13.23;11.88;;;;;;;;;;5020356;28;20034;-70
2022/01/06 05:00:43;;;;;;;14.45;12.00;;;;;;;;;;4999764;28;20052;-70
2022/01/06 05:03:08;;;;;;;13.52;12.48;;;;;;;;;;5008602;28;20111;-70
2022/01/06 05:05:34;;;;;;;12.57;11.50;;;;;;;;;;5007110;28;20033;-70
2022/01/06 05:08:00;;;;;;;12.93;11.68;;;;;;;;;;4996007;28;20092;-70
2022/01/06 05:10:26;;;;;;;13.25;11.88;;;;;;;;;;4992149;28;20096;-70
2022/01/06 05:12:51;;;;;;;12.75;11.63;;;;;;;;;;4988871;28;20509;-70
2022/01/06 05:15:17;;;;;;;12.77;11.43;;;;;;;;;;4992192;28;20030;-69
2022/01/06 05:17:43;;;;;;;12.50;11.40;;;;;;;;;;4996800;28;20161;-69
2022/01/06 05:20:09;;;;;;;12.95;11.65;;;;;;;;;;4994858;28;20050;-70
2022/01/06 05:22:41;;;;;;;12.77;11.73;;;;;;;;;;5000899;28;20038;-70
2022/01/06 05:25:07;;;;;;;12.70;11.85;;;;;;;;;;4999087;28;20474;-70
2022/01/06 05:27:33;;;;;;;12.85;11.85;;;;;;;;;;5005117;28;20061;-70
2022/01/06 05:29:59;;;;;;;14.00;12.63;;;;;;;;;;4996372;28;20135;-69
2022/01/06 05:32:24;;;;;;;14.60;12.05;;;;;;;;;;4998131;28;20096;-69
2022/01/06 05:34:50;;;;;;;12.70;11.60;;;;;;;;;;4998529;28;20186;-70
2022/01/06 05:37:16;;;;;;;13.50;12.10;;;;;;;;;;5007277;28;20393;-69
2022/01/06 05:39:41;;;;;;;13.43;12.32;;;;;;;;;;5008264;28;20041;-70
2022/01/06 05:42:07;;;;;;;16.00;12.27;;;;;;;;;;5003172;28;20038;-70
2022/01/06 05:44:34;;;;;;;13.15;12.10;;;;;;;;;;4999797;28;20588;-70
2022/01/06 05:47:00;;;;;;;14.27;12.07;;;;;;;;;;5007517;28;20038;-69
2022/01/06 05:49:26;;;;;;;13.15;12.00;;;;;;;;;;5007716;28;20551;-69
2022/01/06 05:51:52;;;;;;;13.10;12.02;;;;;;;;;;5004453;28;20050;-69
2022/01/06 05:54:17;;;;;;;13.70;12.60;;;;;;;;;;5002784;28;20037;-69
2022/01/06 05:56:43;;;;;;;13.73;12.40;;;;;;;;;;5011363;28;20410;-69
2022/01/06 05:59:08;;;;;;;13.07;12.10;;;;;;;;;;5027203;28;20042;-70
2022/01/06 06:01:34;;;;;;;13.10;11.90;;;;;;;;;;5004885;28;20037;-70
2022/01/06 06:03:59;;;;;;;13.30;12.30;;;;;;;;;;5007604;28;20052;-70
2022/01/06 06:06:25;;;;;;;12.85;11.65;;;;;;;;;;5011311;28;20037;-70
2022/01/06 06:08:51;;;;;;;12.55;11.57;;;;;;;;;;5011721;28;20038;-70
2022/01/06 06:11:16;;;;;;;13.23;12.25;;;;;;;;;;5000722;28;20440;-70
2022/01/06 06:13:42;;;;;;;13.43;12.23;;;;;;;;;;5007992;28;20038;-70
2022/01/06 06:16:08;;;;;;;12.70;11.57;;;;;;;;;;5010402;28;20033;-70
2022/01/06 06:18:33;;;;;;;12.50;11.40;;;;;;;;;;5010116;28;20065;-70
2022/01/06 06:20:59;;;;;;;12.75;11.43;;;;;;;;;;5001620;28;20034;-69
2022/01/06 06:23:24;;;;;;;12.40;11.40;;;;;;;;;;4996059;28;20038;-69
2022/01/06 06:25:50;;;;;;;13.30;12.02;;;;;;;;;;4992151;28;20123;-69
2022/01/06 06:28:15;;;;;;;11.85;10.95;;;;;;;;;;4997707;28;20423;-69
2022/01/06 06:30:41;;;;;;;12.68;11.50;;;;;;;;;;5009262;28;20045;-69
2022/01/06 06:33:07;;;;;;;13.77;12.50;;;;;;;;;;5010743;28;20042;-69
2022/01/06 06:35:33;;;;;;;12.18;11.13;;;;;;;;;;5011246;28;20513;-69
2022/01/06 06:37:58;;;;;;;12.80;11.70;;;;;;;;;;5002694;28;20049;-69
2022/01/06 06:40:24;;;;;;;13.20;11.93;;;;;;;;;;4999938;28;20450;-69
2022/01/06 06:42:51;;;;;;;11.88;10.98;;;;;;;;;;4974259;28;20550;-69
2022/01/06 06:45:18;;;;;;;12.93;11.80;;;;;;;;;;4994973;28;20038;-69
2022/01/06 06:47:45;;;;;;;12.35;11.25;;;;;;;;;;4996496;28;20034;-69
2022/01/06 06:50:12;;;;;;;12.13;11.13;;;;;;;;;;4991012;28;20038;-69
2022/01/06 06:52:38;;;;;;;12.80;11.73;;;;;;;;;;4991520;28;20482;-69
2022/01/06 06:55:04;;;;;;;12.40;11.40;;;;;;;;;;4999866;28;20030;-69
2022/01/06 06:57:30;;;;;;;12.27;11.45;;;;;;;;;;4994475;28;20505;-69
2022/01/06 06:59:57;;;;;;;12.82;11.65;;;;;;;;;;4989001;28;20065;-71
2022/01/06 07:02:22;;;;;;;12.35;11.45;;;;;;;;;;4998931;28;20041;-69
2022/01/06 07:04:48;;;;;;;12.45;11.30;;;;;;;;;;5006697;28;20535;-69
2022/01/06 07:07:13;;;;;;;13.05;11.93;;;;;;;;;;4993497;28;20041;-70
2022/01/06 07:09:39;;;;;;;11.85;10.85;;;;;;;;;;5005259;28;20045;-69
2022/01/06 07:12:05;;;;;;;13.20;12.05;;;;;;;;;;4996148;28;20045;-69
2022/01/06 07:14:31;;;;;;;16.27;12.93;;;;;;;;;;4990811;28;20045;-69
2022/01/06 07:16:56;;;;;;;14.18;12.48;;;;;;;;;;4990570;28;20034;-68
2022/01/06 07:19:22;;;;;;;13.95;12.75;;;;;;;;;;4999561;28;20173;-69
2022/01/06 07:21:48;;;;;;;12.75;11.75;;;;;;;;;;4998183;28;20347;-68
2022/01/06 07:24:13;;;;;;;14.32;12.50;;;;;;;;;;4990559;28;20038;-69
2022/01/06 07:26:39;;;;;;;13.20;12.00;;;;;;;;;;4990415;28;20038;-70
2022/01/06 07:29:04;;;;;;;15.15;12.52;;;;;;;;;;5003556;28;20042;-72
2022/01/06 07:31:30;;;;;;;13.90;12.60;;;;;;;;;;4991835;28;20494;-72
2022/01/06 07:33:56;;;;;;;12.45;11.48;;;;;;;;;;4991137;28;20109;-72
2022/01/06 07:36:21;;;;;;;14.38;12.50;;;;;;;;;;4990470;28;20382;-71
2022/01/06 07:38:47;;;;;;;12.57;11.48;;;;;;;;;;5010275;28;20450;-70
2022/01/06 07:41:13;;;;;;;12.30;11.18;;;;;;;;;;5004576;28;20034;-69
2022/01/06 07:43:39;;;;;;;17.48;12.40;;;;;;;;;;5008494;28;20259;-71
2022/01/06 07:46:04;;;;;;;15.82;12.45;;;;;;;;;;5009795;28;20044;-71
2022/01/06 07:48:47;;;;;;;14.70;11.88;;;;;;;;;;4999679;28;20040;-70
2022/01/06 07:51:13;;;;;;;16.25;13.63;;;;;;;;;;4999881;28;20033;-70
2022/01/06 07:53:38;;;;;;;16.40;12.43;;;;;;;;;;5000355;28;20067;-68
2022/01/06 07:56:04;;;;;;;13.85;12.57;;;;;;;;;;5019459;28;20034;-67
2022/01/06 07:58:30;;;;;;;14.25;12.95;;;;;;;;;;5023396;22;20048;-69
2022/01/06 08:00:56;;;;;;;15.82;14.15;;;;;;;;;;5003523;28;20040;-68
2022/01/06 08:03:21;;;;;;;14.93;13.43;;;;;;;;;;5027000;28;20051;-68
2022/01/06 08:05:47;;;;;;;13.15;11.93;;;;;;;;;;5028488;28;20495;-66
2022/01/06 08:08:12;;;;;;;14.23;12.75;;;;;;;;;;5001246;28;20053;-72
2022/01/06 08:10:38;;;;;;;14.60;13.20;;;;;;;;;;5004561;28;20092;-69
2022/01/06 08:13:04;;;;;;;15.98;13.25;;;;;;;;;;5023782;28;20639;-70
2022/01/06 08:15:29;;;;;;;14.32;12.80;;;;;;;;;;5015992;28;20080;-69
2022/01/06 08:17:55;;;;;;;14.65;13.13;;;;;;;;;;5006236;28;20469;-68
2022/01/06 08:20:21;;;;;;;14.98;13.57;;;;;;;;;;5023619;28;20205;-69
2022/01/06 08:22:46;;;;;;;15.48;13.85;;;;;;;;;;5007072;28;20049;-71
2022/01/06 08:25:12;;;;;;;14.82;13.50;;;;;;;;;;5021328;28;20045;-69
2022/01/06 08:27:37;;;;;;;14.00;12.75;;;;;;;;;;4993215;28;20469;-70
2022/01/06 08:30:06;;;;;;;13.35;12.05;;;;;;;;;;5028061;28;20069;-72
2022/01/06 08:32:31;;;;;;;12.50;11.43;;;;;;;;;;5025321;28;20136;-71
2022/01/06 08:34:57;;;;;;;13.90;12.70;;;;;;;;;;5000844;28;20373;-72
2022/01/06 08:37:23;;;;;;;14.98;13.52;;;;;;;;;;5003626;28;20116;-71
2022/01/06 08:39:48;;;;;;;15.85;13.82;;;;;;;;;;5009889;28;20050;-70
2022/01/06 08:42:14;;;;;;;15.02;13.55;;;;;;;;;;5007844;28;20033;-71
2022/01/06 08:44:41;;;;;;;15.48;13.93;;;;;;;;;;5000842;28;20381;-70
2022/01/06 08:47:08;;;;;;;17.33;14.90;;;;;;;;;;5009936;28;20030;-72
2022/01/06 08:49:34;;;;;;;15.93;14.30;;;;;;;;;;5005189;28;20121;-71
2022/01/06 08:51:59;;;;;;;15.07;13.98;;;;;;;;;;5000386;28;20145;-69
2022/01/06 08:54:25;;;;;;;14.65;13.48;;;;;;;;;;5017490;28;20029;-70
2022/01/06 08:56:50;;;;;;;14.75;13.27;;;;;;;;;;5027176;28;20034;-69
2022/01/06 08:59:16;;;;;;;15.10;13.75;;;;;;;;;;4995991;28;20030;-71
2022/01/06 09:01:42;;;;;;;14.65;13.48;;;;;;;;;;5013535;28;20040;-69
2022/01/06 09:04:07;;;;;;;13.82;12.65;;;;;;;;;;5015851;28;20034;-69
2022/01/06 09:06:33;;;;;;;13.40;12.25;;;;;;;;;;5003243;28;20073;-71
2022/01/06 09:08:58;;;;;;;15.25;13.77;;;;;;;;;;5011799;28;20039;-72
2022/01/06 09:11:24;;;;;;;13.15;12.15;;;;;;;;;;5027698;28;20069;-70
2022/01/06 09:13:49;;;;;;;13.75;12.65;;;;;;;;;;5024823;28;20029;-71
2022/01/06 09:16:15;;;;;;;14.52;13.43;;;;;;;;;;5001089;28;20042;-69
2022/01/06 09:18:41;;;;;;;14.88;13.45;;;;;;;;;;5006136;28;20037;-69
2022/01/06 09:21:08;;;;;;;14.70;13.30;;;;;;;;;;5001436;28;20065;-70
2022/01/06 09:23:34;;;;;;;14.38;13.20;;;;;;;;;;5008300;28;20044;-69
2022/01/06 09:26:00;;;;;;;13.60;12.40;;;;;;;;;;5001175;28;20026;-69
2022/01/06 09:28:26;;;;;;;13.48;12.48;;;;;;;;;;5008011;28;20099;-68
2022/01/06 09:30:52;;;;;;;13.93;12.73;;;;;;;;;;5009226;28;20073;-68
2022/01/06 09:33:19;;;;;;;17.88;13.20;;;;;;;;;;5002088;28;20069;-68
2022/01/06 09:35:49;;;;;;;13.98;12.52;;;;;;;;;;5006635;28;20030;-68
2022/01/06 09:38:16;;;;;;;13.40;12.25;;;;;;;;;;5028051;28;20219;-68
2022/01/06 09:40:43;;;;;;;18.75;12.60;;;;;;;;;;5008044;28;20116;-68
2022/01/06 09:43:12;;;;;;;13.80;12.48;;;;;;;;;;5007379;28;20556;-67
2022/01/06 09:45:38;;;;;;;14.90;13.50;;;;;;;;;;5028243;28;20041;-68
2022/01/06 09:48:05;;;;;;;14.60;13.23;;;;;;;;;;5016402;28;20022;-68
2022/01/06 09:50:32;;;;;;;14.60;13.07;;;;;;;;;;5001364;28;20046;-67
2022/01/06 09:52:58;;;;;;;15.85;13.25;;;;;;;;;;5002369;28;20030;-67
2022/01/06 09:55:24;;;;;;;13.63;12.32;;;;;;;;;;5004344;28;20033;-67
2022/01/06 09:57:57;;;;;;;14.30;12.77;;;;;;;;;;5002909;28;20041;-67
2022/01/06 10:00:24;;;;;;;15.95;12.65;;;;;;;;;;4999913;28;20033;-67
2022/01/06 10:02:59;;;;;;;15.50;13.60;;;;;;;;;;5009070;28;20400;-67
2022/01/06 10:05:25;;;;;;;14.85;13.45;;;;;;;;;;5004202;28;20034;-67
2022/01/06 10:07:55;;;;;;;15.57;13.88;;;;;;;;;;4993635;28;20257;-67
2022/01/06 10:10:27;;;;;;;;;;;;;;;;;;5027980;28;20069;-67
2022/01/06 10:12:58;;;;;;;13.63;12.50;;;;;;;;;;5018867;28;20394;-67
2022/01/06 10:15:26;;;;;;;16.33;11.48;;;;;;;;;;4999447;28;20652;-67
2022/01/06 10:17:52;;;;;;;19.52;12.07;;;;;;;;;;5008727;28;20503;-67
2022/01/06 10:20:21;;;;;;;13.13;12.10;;;;;;;;;;5004718;28;21553;-67
2022/01/06 10:22:49;;;;;;;13.80;12.55;;;;;;;;;;4997302;28;20030;-67
2022/01/06 10:25:17;;;;;;;13.65;12.30;;;;;;;;;;5003264;28;20127;-67
2022/01/06 10:27:45;;;;;;;15.30;11.98;;;;;;;;;;5006875;28;20033;-67
2022/01/06 10:30:12;;;;;;;12.32;11.02;;;;;;;;;;4995639;28;20034;-67
2022/01/06 10:32:39;;;;;;;14.07;11.60;;;;;;;;;;5018720;28;20084;-68
2022/01/06 10:35:05;;;;;;;12.25;11.20;;;;;;;;;;5026991;28;20041;-68
2022/01/06 10:37:45;;;;;;;14.05;12.43;;;;;;;;;;5015696;28;20042;-67
2022/01/06 10:40:18;;;;;;;19.77;12.75;;;;;;;;;;5004474;28;20476;-67
2022/01/06 10:42:49;;;;;;;13.55;12.15;;;;;;;;;;5022324;28;20125;-67
2022/01/06 10:45:26;;;;;;;15.20;12.50;;;;;;;;;;5009514;28;20037;-68
2022/01/06 10:47:55;;;;;;;14.23;11.10;;;;;;;;;;5004955;28;20125;-67
2022/01/06 10:50:22;;;;;;;12.88;11.73;;;;;;;;;;5007900;28;20033;-67
2022/01/06 10:52:48;;;;;;;13.48;11.88;;;;;;;;;;5010430;28;20088;-67
2022/01/06 10:55:40;;;;;;;14.23;12.27;;;;;;;;;;5005427;28;20041;-67
2022/01/06 10:58:20;;;;;;;15.88;12.52;;;;;;;;;;5006958;28;20049;-67
2022/01/06 11:00:48;;;;;;;13.65;11.82;;;;;;;;;;5010828;28;20126;-67
2022/01/06 11:03:20;;;;;;;16.73;12.47;;;;;;;;;;5002853;28;20045;-67
2022/01/06 11:05:54;;;;;;;13.95;12.52;;;;;;;;;;5018802;28;20272;-67
2022/01/06 11:08:26;;;;;;;12.27;10.93;;;;;;;;;;5001974;28;20069;-67
2022/01/06 11:12:26;;;;;;;12.40;11.27;;;;;;;;;;5004219;28;20282;-67
2022/01/06 11:13:49;;;;;;;13.07;11.88;;;;;;;;;;4989598;28;20092;-67
2022/01/06 11:16:17;;;;;;;12.25;11.15;;;;;;;;;;5005047;28;20048;-67
2022/01/06 11:18:49;;;;;;;12.73;11.43;;;;;;;;;;5000544;28;20098;-67
2022/01/06 11:21:41;;;;;;;12.88;11.63;;;;;;;;;;4999930;28;20746;-67
2022/01/06 11:24:13;;;;;;;13.65;12.25;;;;;;;;;;4998764;28;20030;-68
2022/01/06 11:26:40;;;;;;;13.90;12.48;;;;;;;;;;5008114;28;20029;-68
2022/01/06 11:29:06;;;;;;;13.82;12.30;;;;;;;;;;5006252;28;20034;-67
2022/01/06 11:31:41;;;;;;;12.65;11.25;;;;;;;;;;5004295;28;20121;-67
2022/01/06 11:34:10;;;;;;;15.82;11.73;;;;;;;;;;5003154;28;20125;-67
2022/01/06 11:36:36;;;;;;;12.68;11.73;;;;;;;;;;4996747;28;20042;-67
2022/01/06 11:39:06;;;;;;;14.50;11.75;;;;;;;;;;5004799;28;20044;-68
2022/01/06 11:41:36;;;;;;;15.70;12.05;;;;;;;;;;5001692;28;20046;-67
2022/01/06 11:44:14;;;;;;;12.02;10.85;;;;;;;;;;5006103;28;20117;-67
2022/01/06 11:46:45;;;;;;;13.23;11.95;;;;;;;;;;5002714;28;20100;-67
2022/01/06 11:49:11;;;;;;;14.05;12.63;;;;;;;;;;5002138;28;20025;-68
2022/01/06 11:51:37;;;;;;;15.40;11.68;;;;;;;;;;5003138;28;20042;-68
2022/01/06 11:54:16;;;;;;;18.15;12.30;;;;;;;;;;5003448;28;20077;-67
2022/01/06 11:56:52;;;;;;;;;;;;;;;;;;5003731;28;20046;-67
2022/01/06 11:59:34;;;;;;;12.60;11.52;;;;;;;;;;5002660;28;20014;-67
2022/01/06 12:02:01;;;;;;;15.90;11.77;;;;;;;;;;5008973;28;20071;-67
2022/01/06 12:04:27;;;;;;;13.88;12.18;;;;;;;;;;5004850;28;20073;-67
2022/01/06 12:07:08;;;;;;;15.07;11.15;;;;;;;;;;5010211;28;20042;-67
2022/01/06 12:09:34;;;;;;;16.40;10.90;;;;;;;;;;4997179;28;20045;-67
2022/01/06 12:12:05;;;;;;;12.60;11.38;;;;;;;;;;4996665;28;20041;-68
2022/01/06 12:14:32;;;;;;;13.85;11.60;;;;;;;;;;4997634;28;20074;-67
2022/01/06 12:17:10;;;;;;;13.75;11.48;;;;;;;;;;4997419;28;20042;-67
2022/01/06 12:19:37;;;;;;;15.60;12.23;;;;;;;;;;5002375;28;20057;-68
2022/01/06 12:22:04;;;;;;;15.70;11.48;;;;;;;;;;5000922;28;20022;-67
2022/01/06 12:24:30;;;;;;;19.63;12.20;;;;;;;;;;5001536;28;20041;-68
2022/01/06 12:26:56;;;;;;;14.13;12.00;;;;;;;;;;4999674;28;20030;-67
2022/01/06 12:29:25;;;;;;;12.85;11.30;;;;;;;;;;5003118;28;20042;-68
2022/01/06 12:32:01;;;;;;;11.98;11.00;;;;;;;;;;5006390;28;20504;-67
2022/01/06 12:34:27;;;;;;;12.38;11.10;;;;;;;;;;4999369;28;20476;-67
2022/01/06 12:36:53;;;;;;;12.85;11.52;;;;;;;;;;5000292;28;20520;-67
2022/01/06 12:39:20;;;;;;;13.30;12.10;;;;;;;;;;5003299;28;20049;-67
2022/01/06 12:41:47;;;;;;;13.68;12.10;;;;;;;;;;5001124;28;20038;-67
2022/01/06 12:44:27;;;;;;;13.93;11.73;;;;;;;;;;5004855;28;20037;-67
2022/01/06 12:46:53;;;;;;;14.55;12.60;;;;;;;;;;5001512;28;20029;-67
2022/01/06 12:49:23;;;;;;;13.05;11.95;;;;;;;;;;5010498;28;20112;-67
2022/01/06 12:51:50;;;;;;;14.57;11.80;;;;;;;;;;5003193;28;20091;-67
2022/01/06 12:54:21;;;;;;;15.73;12.18;;;;;;;;;;5022018;28;20371;-67
2022/01/06 12:56:57;;;;;;;16.48;11.77;;;;;;;;;;4999067;28;20060;-67
2022/01/06 12:59:33;;;;;;;13.45;12.18;;;;;;;;;;5001669;28;20793;-67
2022/01/06 13:02:02;;;;;;;12.45;11.57;;;;;;;;;;4997918;28;20042;-67
2022/01/06 13:04:31;;;;;;;12.95;11.60;;;;;;;;;;5001072;28;20092;-67
2022/01/06 13:06:59;;;;;;;14.57;11.68;;;;;;;;;;4996415;28;20061;-68
2022/01/06 13:09:28;;;;;;;12.90;11.70;;;;;;;;;;4995537;28;20654;-67
2022/01/06 13:11:56;;;;;;;12.65;11.32;;;;;;;;;;5001563;28;20041;-70
2022/01/06 13:14:42;;;;;;;12.07;11.02;;;;;;;;;;5000656;28;20029;-67
2022/01/06 13:17:19;;;;;;;14.15;12.00;;;;;;;;;;4999584;28;20037;-68
2022/01/06 13:19:57;;;;;;;13.35;12.05;;;;;;;;;;4997980;28;20069;-69
2022/01/06 13:22:36;;;;;;;13.88;11.82;;;;;;;;;;5000183;28;20564;-67
2022/01/06 13:25:09;;;;;;;12.85;11.65;;;;;;;;;;4998874;28;20038;-68
2022/01/06 13:27:36;;;;;;;12.25;11.35;;;;;;;;;;5001812;28;20033;-68
2022/01/06 13:30:03;;;;;;;12.20;10.90;;;;;;;;;;5001155;28;20122;-68
2022/01/06 13:32:29;;;;;;;12.10;10.98;;;;;;;;;;4999818;28;20429;-68
2022/01/06 13:35:06;;;;;;;13.88;11.95;;;;;;;;;;4999968;28;20438;-68
2022/01/06 13:37:32;;;;;;;12.45;11.45;;;;;;;;;;4998253;28;20137;-67
2022/01/06 13:40:04;;;;;;;18.23;11.63;;;;;;;;;;4999706;28;20045;-68
2022/01/06 13:42:33;;;;;;;17.35;11.80;;;;;;;;;;5001379;28;20061;-67
2022/01/06 13:45:14;;;;;;;12.88;11.43;;;;;;;;;;4993017;28;20049;-68
2022/01/06 13:53:18;;;;;;;12.27;10.98;;;;;;;;;;4998312;28;20048;-68
2022/01/06 13:55:56;;;;;;;13.18;11.80;;;;;;;;;;5001471;28;20400;-67
2022/01/06 13:58:22;;;;;;;16.70;11.20;;;;;;;;;;4998094;28;20404;-68
2022/01/06 14:00:50;;;;;;;11.90;10.73;;;;;;;;;;4992304;28;20037;-68
2022/01/06 14:03:16;;;;;;;11.88;10.73;;;;;;;;;;4991123;28;20038;-68
2022/01/06 14:05:43;;;;;;;11.15;10.02;;;;;;;;;;4998289;28;20093;-67
2022/01/06 14:08:09;;;;;;;10.57;9.55;;;;;;;;;;4997613;28;20555;-68
2022/01/06 14:10:35;;;;;;;12.18;11.00;;;;;;;;;;5019091;28;20335;-67
2022/01/06 14:13:00;;;;;;;13.77;11.50;;;;;;;;;;4994870;28;20040;-67
2022/01/06 14:15:26;;;;;;;13.10;10.75;;;;;;;;;;5009524;28;20038;-68
2022/01/06 14:17:51;;;;;;;13.10;10.73;;;;;;;;;;5006761;28;20034;-67
2022/01/06 14:20:17;;;;;;;14.15;11.27;;;;;;;;;;5004988;28;20127;-68
2022/01/06 14:22:43;;;;;;;12.43;10.95;;;;;;;;;;5003639;28;20088;-68
2022/01/06 14:25:09;;;;;;;11.88;10.73;;;;;;;;;;5009779;28;20551;-68
2022/01/06 14:27:34;;;;;;;12.55;10.52;;;;;;;;;;4996382;28;20034;-67
2022/01/06 14:30:00;;;;;;;12.63;10.45;;;;;;;;;;5019822;28;20066;-67
2022/01/06 14:32:26;;;;;;;11.43;10.45;;;;;;;;;;4995268;28;20041;-67
2022/01/06 14:34:51;;;;;;;14.77;13.23;;;;;;;;;;5015007;28;20088;-68